createdAt,value
2022-10-10T00:08:08.321Z,5.27
2022-10-10T00:18:15.708Z,5.53
2022-10-10T00:28:23.594Z,5.67
2022-10-10T00:38:31.901Z,5.48
2022-10-10T00:48:39.877Z,5.42
2022-10-10T00:58:51.850Z,5.16
2022-10-10T01:08:59.511Z,5.09
2022-10-10T01:19:06.033Z,5.12
2022-10-10T01:29:16.011Z,5.04
2022-10-10T01:39:30.136Z,5.14
2022-10-10T01:49:37.250Z,5.14
2022-10-10T01:59:42.909Z,5.21
2022-10-10T02:09:53.553Z,5.29
2022-10-10T02:20:01.715Z,5.45
2022-10-10T02:30:11.063Z,5.64
2022-10-10T02:40:18.112Z,5.87
2022-10-10T02:50:25.979Z,5.93
2022-10-10T03:00:33.775Z,5.97
2022-10-10T03:10:40.162Z,6.03
2022-10-10T03:20:45.345Z,6.01
2022-10-10T03:30:52.737Z,6.02
2022-10-10T03:40:59.714Z,6.09
2022-10-10T03:51:06.903Z,6.21
2022-10-10T04:01:14.290Z,6.19
2022-10-10T04:11:21.373Z,6.09
2022-10-10T04:21:28.597Z,6.07
2022-10-10T04:31:35.799Z,6.06
2022-10-10T04:41:42.898Z,6.07
2022-10-10T04:51:49.994Z,6.12
2022-10-10T05:02:01.323Z,6.14
2022-10-10T05:12:09.067Z,6.15
2022-10-10T05:22:16.476Z,6.18
2022-10-10T05:32:23.859Z,6.23
2022-10-10T05:42:31.262Z,6.33
2022-10-10T05:52:38.491Z,6.53
2022-10-10T06:02:45.593Z,6.80
2022-10-10T06:12:53.636Z,7.75
2022-10-10T06:23:01.113Z,8.97
2022-10-10T06:33:07.855Z,9.27
2022-10-10T06:43:16.872Z,9.25
2022-10-10T06:53:23.902Z,9.40
2022-10-10T07:03:32.596Z,9.72
2022-10-10T07:13:40.689Z,10.33
2022-10-10T07:23:47.850Z,10.69
2022-10-10T07:33:55.451Z,11.30
2022-10-10T07:44:04.190Z,12.12
2022-10-10T07:54:13.099Z,13.11
2022-10-10T08:04:20.346Z,13.61
2022-10-10T08:14:28.076Z,13.80
2022-10-10T08:24:35.542Z,14.01
2022-10-10T08:34:42.810Z,14.20
2022-10-10T08:44:51.422Z,14.43
2022-10-10T08:54:58.857Z,14.82
2022-10-10T09:05:06.836Z,15.18
2022-10-10T09:15:19.757Z,15.14
2022-10-10T09:25:32.754Z,15.14
2022-10-10T09:35:43.941Z,15.23
2022-10-10T09:45:56.353Z,15.57
2022-10-10T09:56:06.219Z,15.67
2022-10-10T10:16:31.039Z,16.00
2022-10-10T10:26:43.938Z,16.21
2022-10-10T10:37:00.253Z,16.47
2022-10-10T10:47:17.056Z,16.80
2022-10-10T10:57:37.136Z,16.94
2022-10-10T11:07:49.262Z,17.05
2022-10-10T11:17:57.277Z,17.14
2022-10-10T11:28:13.224Z,17.22
2022-10-10T11:38:23.698Z,17.35
2022-10-10T11:48:29.595Z,17.41
2022-10-10T11:58:38.050Z,17.36
2022-10-10T12:08:47.876Z,17.33
2022-10-10T12:18:55.611Z,17.40
2022-10-10T12:29:03.524Z,17.42
2022-10-10T12:39:49.920Z,17.34
2022-10-10T12:49:58.979Z,17.25
2022-10-10T13:00:15.587Z,17.21
2022-10-10T13:10:21.202Z,17.26
2022-10-10T13:20:27.299Z,17.13
2022-10-10T13:30:34.556Z,17.14
2022-10-10T13:40:43.768Z,17.21
2022-10-10T13:50:56.349Z,17.22
2022-10-10T14:01:04.688Z,17.18
2022-10-10T14:11:20.765Z,17.11
2022-10-10T14:21:28.342Z,17.02
2022-10-10T14:31:35.891Z,16.76
2022-10-10T14:41:43.201Z,16.42
2022-10-10T14:51:50.736Z,16.16
2022-10-10T15:01:56.780Z,15.79
2022-10-10T15:12:04.324Z,15.40
2022-10-10T15:22:10.418Z,15.11
2022-10-10T15:32:17.682Z,14.84
2022-10-10T15:42:25.095Z,14.56
2022-10-10T15:52:32.770Z,14.26
2022-10-10T16:02:40.381Z,13.95
2022-10-10T16:12:47.842Z,13.66
2022-10-10T16:22:55.134Z,13.37
2022-10-10T16:33:02.151Z,13.16
2022-10-10T16:43:09.372Z,13.00
2022-10-10T16:53:16.459Z,12.79
2022-10-10T17:03:25.237Z,12.64
2022-10-10T17:13:33.595Z,12.50
2022-10-10T17:23:41.707Z,12.32
2022-10-10T17:33:53.552Z,12.11
2022-10-10T17:44:02.304Z,11.91
2022-10-10T17:54:10.254Z,11.72
2022-10-10T18:04:16.870Z,11.49
2022-10-10T18:14:22.840Z,11.26
2022-10-10T18:24:30.433Z,10.98
2022-10-10T18:34:37.078Z,10.77
2022-10-10T18:44:44.236Z,10.71
2022-10-10T18:54:51.520Z,10.59
2022-10-10T19:04:58.102Z,10.49
2022-10-10T19:15:05.699Z,10.23
2022-10-10T19:25:13.282Z,10.07
2022-10-10T19:35:20.817Z,10.06
2022-10-10T19:45:28.017Z,10.07
2022-10-10T19:55:35.397Z,10.03
2022-10-10T20:05:42.440Z,9.87
2022-10-10T20:15:50.845Z,9.73
2022-10-10T20:25:57.942Z,9.65
2022-10-10T20:36:02.550Z,9.61
2022-10-10T20:46:08.122Z,9.55
2022-10-10T20:56:14.999Z,9.41
2022-10-10T21:06:23.164Z,9.30
2022-10-10T21:16:33.591Z,9.13
2022-10-10T21:26:41.883Z,9.11
2022-10-10T21:36:49.450Z,9.26
2022-10-10T21:46:56.575Z,9.36
2022-10-10T21:57:03.525Z,9.43
2022-10-10T22:07:10.673Z,9.51
2022-10-10T22:17:17.858Z,9.66
2022-10-10T22:27:25.037Z,9.82
2022-10-10T22:37:32.279Z,9.95
2022-10-10T22:47:38.894Z,10.14
2022-10-10T22:57:46.292Z,10.34
2022-10-10T23:07:53.785Z,10.51
2022-10-10T23:18:01.352Z,10.58
2022-10-10T23:28:07.439Z,10.62
2022-10-10T23:38:14.623Z,10.71
2022-10-10T23:48:22.402Z,10.86
2022-10-10T23:58:29.950Z,10.98
